Time;durP1;ratioP1;P1;durP2;ratioP2;P2;SDS_P1;SDS_P2;PMS_P1;PMS_P2;Temp;Humidity;BMP_temperature;BMP_pressure;BME280_temperature;BME280_humidity;BME280_pressure;Samples;Min_cycle;Max_cycle;Signal;HPM_P1;HPM_P2
2023/10/10 00:00:54;;;;;;;13.43;12.33;;;17.20;99.90;;;;;;4879177;29;20486;-81
2023/10/10 00:03:25;;;;;;;13.63;12.43;;;17.00;99.90;;;;;;4878469;29;20564;-80
2023/10/10 00:05:55;;;;;;;14.40;13.20;;;17.00;99.90;;;;;;4878598;29;20493;-80
2023/10/10 00:08:34;;;;;;;14.10;13.10;;;17.00;99.90;;;;;;4883832;29;20483;-81
2023/10/10 00:11:09;;;;;;;13.93;12.70;;;17.00;99.90;;;;;;4879607;29;20486;-82
2023/10/10 00:13:42;;;;;;;13.37;12.17;;;17.00;99.90;;;;;;4880291;29;20463;-81
2023/10/10 00:16:19;;;;;;;13.33;12.30;;;16.90;99.90;;;;;;4875991;29;20484;-81
2023/10/10 00:18:49;;;;;;;14.80;13.57;;;16.90;99.90;;;;;;4881166;29;20771;-81
2023/10/10 00:21:23;;;;;;;14.50;13.07;;;16.90;99.90;;;;;;4879299;29;20463;-83
2023/10/10 00:23:54;;;;;;;14.60;13.10;;;16.90;99.90;;;;;;4878693;29;21040;-82
2023/10/10 00:26:23;;;;;;;13.63;12.33;;;16.90;99.90;;;;;;4878422;29;20470;-82
2023/10/10 00:28:55;;;;;;;14.93;13.50;;;16.90;99.90;;;;;;4878099;29;20516;-81
2023/10/10 00:31:26;;;;;;;15.30;13.53;;;16.90;99.90;;;;;;4880707;29;20488;-82
2023/10/10 00:33:55;;;;;;;13.80;12.67;;;16.90;99.90;;;;;;4883717;29;20821;-82
2023/10/10 00:36:31;;;;;;;15.07;12.40;;;16.90;99.90;;;;;;4876790;29;20636;-81
2023/10/10 00:39:06;;;;;;;14.97;13.40;;;16.90;99.90;;;;;;4880573;29;20544;-82
2023/10/10 00:41:42;;;;;;;13.87;12.60;;;16.80;99.90;;;;;;4883156;29;20455;-81
2023/10/10 00:44:12;;;;;;;15.10;13.70;;;16.80;99.90;;;;;;4880812;29;20454;-82
2023/10/10 00:46:42;;;;;;;14.70;13.50;;;16.70;99.90;;;;;;4877667;29;20498;-82
2023/10/10 00:49:14;;;;;;;14.33;12.90;;;16.70;99.90;;;;;;4880059;29;20519;-83
2023/10/10 00:51:46;;;;;;;15.73;14.20;;;16.70;99.90;;;;;;4878310;29;20480;-83
2023/10/10 00:54:26;;;;;;;15.77;13.50;;;16.70;99.90;;;;;;4880670;29;20460;-83
2023/10/10 00:56:57;;;;;;;15.63;13.70;;;16.70;99.90;;;;;;4880282;29;20467;-82
2023/10/10 00:59:32;;;;;;;13.80;12.37;;;16.60;99.90;;;;;;4881120;29;21069;-83
2023/10/10 01:02:04;;;;;;;14.67;13.20;;;16.60;99.90;;;;;;4875190;29;20460;-83
2023/10/10 01:04:39;;;;;;;14.10;12.83;;;16.60;99.90;;;;;;4878680;29;20531;-82
2023/10/10 01:07:08;;;;;;;15.00;13.60;;;16.50;99.90;;;;;;4877540;29;20467;-82
2023/10/10 01:09:51;;;;;;;14.30;13.23;;;16.50;99.90;;;;;;4881969;29;20603;-83
2023/10/10 01:12:19;;;;;;;14.20;13.10;;;16.50;99.90;;;;;;4878348;29;20480;-82
2023/10/10 01:14:54;;;;;;;15.67;14.17;;;16.50;99.90;;;;;;4882079;29;20474;-82
2023/10/10 01:17:29;;;;;;;14.20;12.90;;;16.40;99.90;;;;;;4895338;29;20507;-82
2023/10/10 01:20:09;;;;;;;14.97;13.47;;;16.40;99.90;;;;;;4892048;29;20487;-82
2023/10/10 01:22:40;;;;;;;14.30;12.90;;;16.30;99.90;;;;;;4887506;29;20516;-84
2023/10/10 01:27:54;;;;;;;14.60;13.53;;;16.30;99.90;;;;;;4877036;29;20512;-83
2023/10/10 01:30:43;;;;;;;16.20;14.63;;;16.20;99.90;;;;;;4880565;29;20475;-81
2023/10/10 01:33:14;;;;;;;14.37;13.33;;;16.20;99.90;;;;;;4883410;29;20555;-82
2023/10/10 01:35:43;;;;;;;14.53;13.40;;;16.30;99.90;;;;;;4884275;29;20538;-81
2023/10/10 01:38:32;;;;;;;15.80;14.20;;;16.30;99.90;;;;;;4883508;29;20459;-82
2023/10/10 01:41:04;;;;;;;15.50;14.10;;;16.20;99.90;;;;;;4901460;29;21103;-81
2023/10/10 01:43:33;;;;;;;15.73;14.20;;;16.20;99.90;;;;;;4887144;29;20475;-83
2023/10/10 01:46:15;;;;;;;14.00;13.03;;;16.20;99.90;;;;;;4886279;29;20477;-82
2023/10/10 01:48:44;;;;;;;13.80;12.67;;;16.20;99.90;;;;;;4887610;29;20490;-82
2023/10/10 01:51:15;;;;;;;15.23;13.63;;;16.20;99.90;;;;;;4880675;29;20495;-82
2023/10/10 01:53:44;;;;;;;15.30;14.13;;;16.30;99.90;;;;;;4886441;29;20893;-82
2023/10/10 01:56:13;;;;;;;14.27;13.10;;;16.30;99.90;;;;;;4877451;29;20467;-82
2023/10/10 01:58:41;;;;;;;14.70;13.37;;;16.30;99.90;;;;;;4881809;29;21136;-81
2023/10/10 02:01:14;;;;;;;15.20;13.80;;;16.30;99.90;;;;;;4880026;29;20489;-83
2023/10/10 02:03:44;;;;;;;15.77;14.40;;;16.30;99.90;;;;;;4878861;29;20608;-82
2023/10/10 02:06:24;;;;;;;15.63;14.17;;;16.20;99.90;;;;;;4878657;29;20465;-83
2023/10/10 02:08:53;;;;;;;14.87;13.60;;;16.20;99.90;;;;;;4881861;29;20512;-83
2023/10/10 02:11:21;;;;;;;13.80;12.93;;;16.20;99.90;;;;;;4881352;29;20508;-82
2023/10/10 02:13:50;;;;;;;14.87;13.87;;;16.20;99.90;;;;;;4881402;29;21045;-81
2023/10/10 02:16:18;;;;;;;14.20;13.37;;;16.10;99.90;;;;;;4882352;29;20534;-81
2023/10/10 02:18:51;;;;;;;15.23;13.77;;;16.10;99.90;;;;;;4875746;29;20511;-83
2023/10/10 02:21:31;;;;;;;15.57;14.00;;;16.10;99.90;;;;;;4881050;29;20463;-83
2023/10/10 02:24:13;;;;;;;15.03;13.93;;;16.10;99.90;;;;;;4881097;29;20478;-82
2023/10/10 02:26:40;;;;;;;15.03;13.80;;;16.10;99.90;;;;;;4885607;29;20468;-84
2023/10/10 02:29:18;;;;;;;15.63;14.23;;;16.20;99.90;;;;;;4885931;29;20540;-82
2023/10/10 02:31:55;;;;;;;15.20;14.03;;;16.10;99.90;;;;;;4886440;29;20483;-82
2023/10/10 02:34:24;;;;;;;15.30;14.23;;;16.10;99.90;;;;;;4884427;29;20454;-82
2023/10/10 02:37:10;;;;;;;15.70;14.43;;;16.00;99.90;;;;;;4896654;29;20486;-82
2023/10/10 02:39:46;;;;;;;15.97;14.60;;;16.00;99.90;;;;;;4894030;29;20478;-82
2023/10/10 02:42:19;;;;;;;14.27;13.00;;;16.00;99.90;;;;;;4886301;29;20458;-82
2023/10/10 02:44:47;;;;;;;15.37;14.10;;;16.00;99.90;;;;;;4882916;29;20459;-82
2023/10/10 02:47:30;;;;;;;14.40;13.13;;;15.90;99.90;;;;;;4890403;29;20986;-83
2023/10/10 02:50:09;;;;;;;15.37;13.97;;;15.90;99.90;;;;;;4885427;29;20486;-81
2023/10/10 02:52:43;;;;;;;15.60;13.97;;;15.90;99.90;;;;;;4883613;29;20491;-83
2023/10/10 02:55:22;;;;;;;15.20;13.47;;;15.90;99.90;;;;;;4881426;29;20491;-79
2023/10/10 02:57:53;;;;;;;14.60;13.40;;;15.80;99.90;;;;;;4890933;29;20501;-82
2023/10/10 03:00:28;;;;;;;15.30;14.40;;;15.90;99.90;;;;;;4882067;29;21064;-82
2023/10/10 03:02:58;;;;;;;15.07;13.87;;;15.90;99.90;;;;;;4882709;29;21068;-84
2023/10/10 03:05:40;;;;;;;15.67;14.40;;;15.90;99.90;;;;;;4879477;29;20516;-83
2023/10/10 03:08:14;;;;;;;15.70;14.50;;;15.90;99.90;;;;;;4881827;29;20480;-82
2023/10/10 03:10:53;;;;;;;15.23;14.00;;;15.90;99.90;;;;;;4878364;29;20542;-83
2023/10/10 03:16:43;;;;;;;16.33;14.97;;;15.90;99.90;;;;;;4873500;29;20473;-82
2023/10/10 03:19:26;;;;;;;16.03;14.50;;;15.90;99.90;;;;;;4883514;29;20488;-82
2023/10/10 03:22:19;;;;;;;14.33;13.63;;;15.80;99.90;;;;;;4882299;29;20614;-84
2023/10/10 03:25:05;;;;;;;19.80;14.07;;;15.80;99.90;;;;;;4885645;29;20483;-81
2023/10/10 03:27:49;;;;;;;15.40;14.13;;;15.70;99.90;;;;;;4878022;29;20472;-81
2023/10/10 03:30:21;;;;;;;13.73;12.93;;;15.70;99.90;;;;;;4878624;29;20561;-79
2023/10/10 03:41:26;;;;;;;15.07;13.57;;;15.70;99.90;;;;;;4881050;29;20459;-82
2023/10/10 05:23:47;;;;;;;15.03;13.93;;;15.10;99.90;;;;;;4880074;29;20471;-82
2023/10/10 05:26:18;;;;;;;15.77;14.60;;;15.10;99.90;;;;;;4879448;29;21181;-82
2023/10/10 05:28:48;;;;;;;16.53;15.00;;;15.10;99.90;;;;;;4876408;29;20487;-82
2023/10/10 05:31:19;;;;;;;15.00;13.90;;;15.00;99.90;;;;;;4880938;29;20451;-84
2023/10/10 05:33:48;;;;;;;16.30;14.80;;;15.00;99.90;;;;;;4882265;29;20491;-82
2023/10/10 05:36:18;;;;;;;15.40;14.20;;;15.00;99.90;;;;;;4886002;29;20473;-83
2023/10/10 05:38:50;;;;;;;15.37;13.97;;;15.00;99.90;;;;;;4886742;29;20476;-81
2023/10/10 05:41:22;;;;;;;16.57;14.37;;;15.00;99.90;;;;;;4884060;29;20460;-82
2023/10/10 05:43:50;;;;;;;15.70;14.40;;;14.90;99.90;;;;;;4881428;29;20451;-82
2023/10/10 05:46:18;;;;;;;16.03;14.57;;;14.90;99.90;;;;;;4882844;29;20468;-82
2023/10/10 05:48:47;;;;;;;16.17;14.90;;;14.90;99.90;;;;;;4883184;29;20578;-81
2023/10/10 05:51:15;;;;;;;15.47;14.17;;;14.90;99.90;;;;;;4876847;29;21233;-83
2023/10/10 05:53:46;;;;;;;14.93;13.63;;;14.80;99.90;;;;;;4880467;29;20483;-83
2023/10/10 05:56:17;;;;;;;15.43;14.33;;;14.90;99.90;;;;;;4878625;29;20471;-83
2023/10/10 05:58:47;;;;;;;15.60;14.50;;;14.90;99.90;;;;;;4876804;29;20506;-83
2023/10/10 06:01:16;;;;;;;15.03;14.10;;;14.90;99.90;;;;;;4881746;29;20506;-84
2023/10/10 06:03:45;;;;;;;15.73;14.60;;;14.90;99.90;;;;;;4881183;29;20464;-83
2023/10/10 06:06:15;;;;;;;14.97;13.60;;;14.90;99.90;;;;;;4883014;29;21225;-84
2023/10/10 06:08:44;;;;;;;16.27;15.00;;;14.90;99.90;;;;;;4883312;29;20503;-82
2023/10/10 06:11:15;;;;;;;15.33;14.23;;;14.90;99.90;;;;;;4886493;29;20463;-83
2023/10/10 06:13:44;;;;;;;16.17;14.83;;;14.80;99.90;;;;;;4883181;29;21101;-82
2023/10/10 06:16:14;;;;;;;16.33;14.87;;;14.80;99.90;;;;;;4882794;29;20460;-83
2023/10/10 06:18:47;;;;;;;16.13;14.83;;;14.80;99.90;;;;;;4884799;29;20573;-83
2023/10/10 06:21:15;;;;;;;16.30;14.90;;;14.80;99.90;;;;;;4881269;29;20536;-82
2023/10/10 06:23:44;;;;;;;15.50;14.20;;;14.80;99.90;;;;;;4882008;29;20909;-81
2023/10/10 06:26:14;;;;;;;14.73;13.83;;;14.90;99.90;;;;;;4894957;29;20464;-84
2023/10/10 06:28:53;;;;;;;16.10;14.77;;;15.00;99.90;;;;;;4884649;29;20587;-83
2023/10/10 06:31:33;;;;;;;16.07;15.03;;;15.10;99.90;;;;;;4885012;29;21125;-82
2023/10/10 06:34:19;;;;;;;16.30;15.10;;;15.10;99.90;;;;;;4895800;29;21047;-83
2023/10/10 06:36:48;;;;;;;16.37;14.97;;;15.10;99.90;;;;;;4882927;29;20462;-82
2023/10/10 06:39:19;;;;;;;17.23;15.70;;;15.10;99.90;;;;;;4886934;29;20540;-84
2023/10/10 06:41:51;;;;;;;17.03;15.73;;;15.20;99.90;;;;;;4880697;29;20482;-83
2023/10/10 06:44:35;;;;;;;14.90;13.80;;;15.20;99.90;;;;;;4877826;29;20543;-83
2023/10/10 06:47:11;;;;;;;16.33;14.93;;;15.30;99.90;;;;;;4875424;29;20475;-83
2023/10/10 06:49:54;;;;;;;17.73;16.13;;;15.30;99.90;;;;;;4879637;29;20487;-83
2023/10/10 06:52:27;;;;;;;17.83;15.77;;;15.30;99.90;;;;;;4881088;29;21564;-82
2023/10/10 06:54:56;;;;;;;18.73;15.80;;;15.40;99.90;;;;;;4879573;29;20511;-82
2023/10/10 06:57:37;;;;;;;16.93;15.60;;;15.50;99.90;;;;;;4881873;29;20467;-82
2023/10/10 07:02:58;;;;;;;16.67;15.47;;;15.50;99.90;;;;;;4877632;29;20567;-83
2023/10/10 07:05:33;;;;;;;18.00;16.60;;;15.70;99.90;;;;;;4876702;29;20559;-84
2023/10/10 07:08:13;;;;;;;16.80;15.60;;;15.70;99.90;;;;;;4878211;29;20463;-83
2023/10/10 07:10:43;;;;;;;15.90;14.50;;;15.80;99.90;;;;;;4874529;29;20981;-84
2023/10/10 07:13:14;;;;;;;17.57;15.80;;;15.90;99.90;;;;;;4877581;29;20977;-83
2023/10/10 07:15:50;;;;;;;19.27;17.07;;;15.90;99.90;;;;;;4875389;29;20475;-84
2023/10/10 07:18:23;;;;;;;18.00;16.23;;;16.00;99.90;;;;;;4877695;29;20502;-83
2023/10/10 07:21:04;;;;;;;16.97;15.47;;;16.10;99.90;;;;;;4878681;29;20478;-82
2023/10/10 07:23:39;;;;;;;17.90;16.27;;;16.20;99.90;;;;;;4877128;29;20500;-83
2023/10/10 07:26:18;;;;;;;17.77;16.47;;;16.30;99.90;;;;;;4878274;29;20459;-83
2023/10/10 07:28:49;;;;;;;18.88;17.02;;;16.40;99.90;;;;;;4876094;29;20448;-83
2023/10/10 07:31:18;;;;;;;19.00;17.20;;;16.40;99.90;;;;;;4877296;29;20207;-82
2023/10/10 07:33:54;;;;;;;17.80;16.47;;;16.70;99.90;;;;;;4878541;29;20479;-82
2023/10/10 07:36:27;;;;;;;18.57;16.97;;;16.90;99.90;;;;;;4880457;29;20817;-83
2023/10/10 07:39:32;;;;;;;17.90;16.30;;;17.30;99.90;;;;;;4881575;29;20480;-82
2023/10/10 07:41:46;;;;;;;17.63;16.30;;;17.50;99.90;;;;;;4879359;29;20456;-83
2023/10/10 07:44:19;;;;;;;18.50;16.60;;;17.80;99.90;;;;;;4882841;29;20451;-82
2023/10/10 07:49:33;;;;;;;19.60;17.83;;;18.20;99.90;;;;;;4881861;29;20476;-83
2023/10/10 07:52:02;;;;;;;18.53;16.83;;;18.50;99.90;;;;;;4879321;29;20531;-83
2023/10/10 07:54:38;;;;;;;18.33;16.57;;;18.60;99.90;;;;;;4880646;29;21407;-83
2023/10/10 07:57:17;;;;;;;18.57;16.70;;;18.70;99.90;;;;;;4877146;29;20463;-81
2023/10/10 07:59:47;;;;;;;18.03;16.70;;;18.80;99.90;;;;;;4879581;29;20514;-81
2023/10/10 08:02:24;;;;;;;19.50;17.67;;;19.00;99.90;;;;;;4881077;29;20447;-81
2023/10/10 08:04:54;;;;;;;19.30;17.50;;;19.20;99.90;;;;;;4875194;29;21609;-81
2023/10/10 08:07:23;;;;;;;20.30;18.50;;;19.30;99.90;;;;;;4874954;29;20460;-81
2023/10/10 08:10:13;;;;;;;19.10;17.60;;;19.50;99.90;;;;;;4880503;29;21064;-81
2023/10/10 08:12:42;;;;;;;20.87;18.90;;;19.60;99.90;;;;;;4878386;29;20515;-81
2023/10/10 08:15:20;;;;;;;20.07;18.10;;;19.90;99.90;;;;;;4875399;29;21280;-81
2023/10/10 08:17:53;;;;;;;19.00;17.30;;;20.30;99.90;;;;;;4883094;29;20464;-82
2023/10/10 08:20:34;;;;;;;18.20;16.80;;;20.60;99.90;;;;;;4879685;29;20497;-81
2023/10/10 08:23:04;;;;;;;17.67;15.87;;;20.90;99.90;;;;;;4874666;29;20459;-82
2023/10/10 08:25:33;;;;;;;18.17;16.40;;;21.30;99.90;;;;;;4880751;29;20467;-81
2023/10/10 08:28:02;;;;;;;18.90;15.33;;;21.90;99.90;;;;;;4879675;29;20582;-82
2023/10/10 08:30:33;;;;;;;15.00;13.63;;;22.30;99.90;;;;;;4874706;29;20484;-82
2023/10/10 08:33:02;;;;;;;17.30;14.17;;;22.70;99.90;;;;;;4877909;29;20455;-81
2023/10/10 08:35:38;;;;;;;11.90;10.67;;;23.00;99.90;;;;;;4875869;29;20560;-82
2023/10/10 08:38:07;;;;;;;15.47;11.43;;;23.40;99.90;;;;;;4875224;29;21084;-82
2023/10/10 08:40:37;;;;;;;11.10;9.90;;;23.80;99.90;;;;;;4876429;29;20819;-82
2023/10/10 08:43:07;;;;;;;11.37;10.30;;;24.10;99.90;;;;;;4870236;29;20470;-82
2023/10/10 08:45:43;;;;;;;12.00;11.00;;;24.40;99.90;;;;;;4878211;29;20572;-82
2023/10/10 08:48:13;;;;;;;12.70;11.23;;;24.80;99.90;;;;;;4880249;29;20466;-83
2023/10/10 08:50:44;;;;;;;12.63;11.53;;;25.10;99.90;;;;;;4876594;29;20471;-82
2023/10/10 08:53:14;;;;;;;12.73;11.50;;;25.10;99.90;;;;;;4876383;29;20467;-82
2023/10/10 08:55:43;;;;;;;15.00;12.10;;;25.20;99.90;;;;;;4878106;29;20494;-82
2023/10/10 08:58:11;;;;;;;13.90;12.30;;;25.10;99.90;;;;;;4877196;29;20496;-81
2023/10/10 09:00:41;;;;;;;14.37;13.23;;;25.20;99.90;;;;;;4879464;29;20454;-83
2023/10/10 09:03:09;;;;;;;14.37;13.07;;;25.50;99.90;;;;;;4879580;29;20472;-81
2023/10/10 09:05:37;;;;;;;18.07;13.40;;;25.90;99.90;;;;;;4878940;29;20457;-82
2023/10/10 09:08:14;;;;;;;17.83;16.07;;;26.10;99.90;;;;;;4880961;29;20464;-81
2023/10/10 09:10:47;;;;;;;16.27;14.77;;;26.20;99.90;;;;;;4875858;29;20463;-82
2023/10/10 09:13:17;;;;;;;16.90;15.57;;;26.30;99.90;;;;;;4880624;29;21179;-82
2023/10/10 09:15:57;;;;;;;16.77;15.20;;;26.50;99.90;;;;;;4877810;29;20479;-81
2023/10/10 09:18:26;;;;;;;15.87;14.60;;;26.30;99.90;;;;;;4881180;29;20456;-81
2023/10/10 09:21:17;;;;;;;16.93;15.57;;;26.30;99.90;;;;;;4879865;29;20455;-82
2023/10/10 09:24:07;;;;;;;16.27;14.97;;;26.20;99.90;;;;;;4878329;29;20470;-82
2023/10/10 09:26:36;;;;;;;16.20;14.77;;;26.20;99.90;;;;;;4879814;29;20845;-82
2023/10/10 09:29:15;;;;;;;15.50;14.30;;;26.00;99.90;;;;;;4874356;29;21345;-82
2023/10/10 09:31:48;;;;;;;22.13;15.03;;;26.20;99.90;;;;;;4879665;29;20577;-83
2023/10/10 09:34:22;;;;;;;17.93;14.80;;;26.00;99.90;;;;;;4877095;29;20547;-83
2023/10/10 09:36:56;;;;;;;15.20;14.00;;;26.10;99.90;;;;;;4883816;29;21007;-83
2023/10/10 09:39:36;;;;;;;14.77;13.87;;;25.90;99.90;;;;;;4887610;29;20490;-82
2023/10/10 09:42:27;;;;;;;14.90;13.80;;;25.80;99.90;;;;;;4879937;29;20490;-82
2023/10/10 09:47:55;;;;;;;14.43;13.03;;;25.20;99.90;;;;;;4886400;29;20461;-81
2023/10/10 09:50:35;;;;;;;16.30;13.33;;;25.00;99.90;;;;;;4890618;29;20471;-81
2023/10/10 09:53:19;;;;;;;13.50;12.50;;;24.90;99.90;;;;;;4884013;29;20479;-81
2023/10/10 09:55:53;;;;;;;13.93;12.87;;;24.90;99.90;;;;;;4883412;29;20542;-82
2023/10/10 09:58:27;;;;;;;15.40;13.53;;;24.90;99.90;;;;;;4884343;29;20451;-81
2023/10/10 10:01:04;;;;;;;13.50;12.70;;;24.90;99.90;;;;;;4886492;29;20656;-82
2023/10/10 10:03:35;;;;;;;14.63;13.70;;;24.60;99.90;;;;;;4882238;29;20487;-82
2023/10/10 10:06:35;;;;;;;13.90;12.80;;;24.60;99.90;;;;;;4877810;29;20471;-81
2023/10/10 10:09:32;;;;;;;14.97;13.63;;;24.70;99.90;;;;;;4879773;29;20593;-81
2023/10/10 10:12:19;;;;;;;15.80;12.87;;;24.70;99.90;;;;;;4877652;29;21343;-82
2023/10/10 10:14:56;;;;;;;14.00;12.77;;;24.70;99.90;;;;;;4880840;29;20467;-82
2023/10/10 10:17:46;;;;;;;13.63;12.60;;;24.80;99.90;;;;;;4883908;29;20458;-83
2023/10/10 10:20:24;;;;;;;13.60;12.30;;;25.00;99.90;;;;;;4884029;29;21134;-82
2023/10/10 10:22:53;;;;;;;13.90;12.80;;;25.00;99.90;;;;;;4885312;29;20474;-82
2023/10/10 10:25:28;;;;;;;13.90;12.83;;;25.20;99.90;;;;;;4883937;29;21072;-82
2023/10/10 10:28:00;;;;;;;14.53;13.30;;;25.40;99.90;;;;;;4887689;29;20451;-83
2023/10/10 10:30:46;;;;;;;15.73;14.17;;;25.50;99.90;;;;;;4883239;29;21098;-83
2023/10/10 10:33:15;;;;;;;16.23;14.70;;;25.60;99.90;;;;;;4884484;29;20442;-83
2023/10/10 10:36:14;;;;;;;15.50;14.20;;;25.60;99.90;;;;;;4879917;29;20966;-82
2023/10/10 10:41:41;;;;;;;14.50;13.17;;;25.80;99.90;;;;;;4886251;29;20996;-82
2023/10/10 10:44:12;;;;;;;17.40;15.83;;;25.90;99.90;;;;;;4884295;29;20456;-82
2023/10/10 10:46:48;;;;;;;14.13;12.90;;;26.00;99.90;;;;;;4883423;29;20482;-83
2023/10/10 10:49:22;;;;;;;14.47;12.70;;;26.00;99.90;;;;;;4884347;29;20562;-83
2023/10/10 10:52:14;;;;;;;17.67;12.67;;;26.00;99.90;;;;;;4881253;29;20951;-83
2023/10/10 10:54:49;;;;;;;18.60;13.07;;;26.00;99.90;;;;;;4878425;29;20511;-82
2023/10/10 10:57:27;;;;;;;13.50;12.37;;;26.10;99.90;;;;;;4878660;29;20525;-81
2023/10/10 11:00:25;;;;;;;12.37;11.17;;;26.20;99.90;;;;;;4882338;29;20490;-81
2023/10/10 11:02:59;;;;;;;16.90;11.93;;;26.20;99.90;;;;;;4885101;29;20488;-81
2023/10/10 11:05:29;;;;;;;12.63;11.33;;;26.20;99.90;;;;;;4878973;29;20467;-83
2023/10/10 11:08:11;;;;;;;11.73;10.73;;;26.20;99.90;;;;;;4877339;29;20468;-82
2023/10/10 11:10:45;;;;;;;12.07;11.10;;;26.10;99.90;;;;;;4881464;29;20452;-82
2023/10/10 11:13:14;;;;;;;12.70;11.30;;;26.00;99.90;;;;;;4883728;29;20998;-82
2023/10/10 11:15:43;;;;;;;16.23;11.80;;;25.80;99.90;;;;;;4881010;29;21001;-82
2023/10/10 11:18:11;;;;;;;12.13;11.03;;;25.70;99.90;;;;;;4885951;29;20535;-83
2023/10/10 11:20:56;;;;;;;13.87;11.80;;;25.60;99.90;;;;;;4876707;29;20468;-83
2023/10/10 11:23:41;;;;;;;13.20;12.10;;;25.50;99.90;;;;;;4880544;29;20843;-82
2023/10/10 11:26:13;;;;;;;11.43;10.40;;;25.50;99.90;;;;;;4883521;29;20457;-83
2023/10/10 11:28:47;;;;;;;12.37;11.37;;;25.40;99.90;;;;;;4881485;29;20479;-81
2023/10/10 11:31:23;;;;;;;12.40;11.13;;;25.30;99.90;;;;;;4883498;29;21171;-83
2023/10/10 11:34:10;;;;;;;11.83;11.10;;;25.30;99.90;;;;;;4879983;29;20467;-82
2023/10/10 11:36:39;;;;;;;11.43;10.00;;;25.20;99.90;;;;;;4883181;29;20488;-83
2023/10/10 11:39:31;;;;;;;11.87;10.70;;;25.20;99.90;;;;;;4872962;29;20496;-82
2023/10/10 11:42:03;;;;;;;16.33;11.93;;;25.20;99.90;;;;;;4877986;29;20460;-82
2023/10/10 11:44:33;;;;;;;12.03;11.03;;;25.20;99.90;;;;;;4876099;29;20476;-82
2023/10/10 11:47:07;;;;;;;14.77;11.63;;;25.10;99.90;;;;;;4875066;29;20489;-83
2023/10/10 11:49:36;;;;;;;11.60;10.73;;;25.20;99.90;;;;;;4872293;29;20475;-82
2023/10/10 11:52:04;;;;;;;11.17;10.17;;;25.10;99.90;;;;;;4881709;29;20468;-81
2023/10/10 11:54:35;;;;;;;10.10;9.30;;;25.10;99.90;;;;;;4876245;29;20470;-82
2023/10/10 11:57:03;;;;;;;10.57;9.87;;;25.00;99.90;;;;;;4876158;29;20487;-82
2023/10/10 11:59:32;;;;;;;12.47;10.03;;;25.10;99.90;;;;;;4875858;29;20488;-81
2023/10/10 12:02:08;;;;;;;11.07;10.00;;;25.10;99.90;;;;;;4879664;29;20464;-81
2023/10/10 12:04:38;;;;;;;11.37;10.30;;;25.00;99.90;;;;;;4880053;29;20890;-81
2023/10/10 12:07:06;;;;;;;10.47;9.30;;;25.00;99.90;;;;;;4881438;29;20463;-82
2023/10/10 12:09:38;;;;;;;10.95;9.95;;;25.00;99.90;;;;;;4881874;29;20509;-82
2023/10/10 12:12:06;;;;;;;13.20;10.60;;;25.10;99.90;;;;;;4878606;29;20200;-83
2023/10/10 12:14:36;;;;;;;12.47;11.00;;;25.10;99.90;;;;;;4879539;29;20456;-83
2023/10/10 12:17:06;;;;;;;10.60;9.60;;;25.00;99.90;;;;;;4877872;29;20481;-82
2023/10/10 12:19:43;;;;;;;10.77;9.77;;;25.00;99.90;;;;;;4881753;29;20554;-82
2023/10/10 12:22:11;;;;;;;11.47;10.30;;;25.00;99.90;;;;;;4879454;29;20579;-83
2023/10/10 12:24:41;;;;;;;10.77;9.33;;;24.90;99.90;;;;;;4876614;29;20488;-82
2023/10/10 12:27:10;;;;;;;11.90;10.70;;;25.00;99.90;;;;;;4880701;29;20487;-83
2023/10/10 12:29:41;;;;;;;11.03;10.07;;;24.90;99.90;;;;;;4879369;29;20487;-83
2023/10/10 12:32:18;;;;;;;11.20;10.10;;;24.90;99.90;;;;;;4882325;29;20492;-82
2023/10/10 12:34:48;;;;;;;11.03;9.90;;;24.90;99.90;;;;;;4884118;29;20457;-82
2023/10/10 12:37:16;;;;;;;11.30;10.30;;;24.90;99.90;;;;;;4882571;29;20480;-81
2023/10/10 12:39:46;;;;;;;10.40;9.40;;;24.90;99.90;;;;;;4881737;29;20934;-81
2023/10/10 12:42:14;;;;;;;11.23;9.97;;;24.90;99.90;;;;;;4880410;29;20858;-81
2023/10/10 12:44:47;;;;;;;10.83;9.77;;;24.90;99.90;;;;;;4881214;29;20485;-81
2023/10/10 12:47:17;;;;;;;10.97;10.10;;;25.00;99.90;;;;;;4880287;29;21059;-82
2023/10/10 12:49:46;;;;;;;11.53;9.83;;;24.90;99.90;;;;;;4878494;29;20484;-82
2023/10/10 12:52:18;;;;;;;10.90;9.90;;;24.80;99.90;;;;;;4880127;29;20992;-82
2023/10/10 12:54:57;;;;;;;11.30;10.20;;;24.90;99.90;;;;;;4882639;29;20553;-82
2023/10/10 12:57:32;;;;;;;15.03;10.27;;;24.90;99.90;;;;;;4880232;29;20480;-81
2023/10/10 13:00:23;;;;;;;9.97;9.20;;;24.80;99.90;;;;;;4868779;29;20495;-81
2023/10/10 13:02:49;;;;;;;11.20;10.30;;;24.80;99.90;;;;;;4871350;29;20554;-81
2023/10/10 13:05:18;;;;;;;12.13;10.60;;;24.80;99.90;;;;;;4863123;29;20464;-83
2023/10/10 13:07:46;;;;;;;11.97;10.50;;;24.70;99.90;;;;;;4876302;29;20468;-82
2023/10/10 13:10:15;;;;;;;11.87;10.70;;;24.60;99.90;;;;;;4874617;29;20485;-81
2023/10/10 13:12:51;;;;;;;11.17;10.07;;;24.60;99.90;;;;;;4881614;29;20464;-82
2023/10/10 13:15:27;;;;;;;11.87;10.67;;;24.60;99.90;;;;;;4880028;29;20462;-81
2023/10/10 13:18:11;;;;;;;11.73;10.73;;;24.50;99.90;;;;;;4872113;29;20606;-84
2023/10/10 13:20:40;;;;;;;12.27;10.90;;;24.60;99.90;;;;;;4879590;29;21012;-83
2023/10/10 13:23:09;;;;;;;11.77;10.70;;;24.50;99.90;;;;;;4881075;29;20530;-82
2023/10/10 13:25:39;;;;;;;12.53;11.30;;;24.50;99.90;;;;;;4879565;29;20466;-83
2023/10/10 13:28:09;;;;;;;12.83;11.53;;;24.50;99.90;;;;;;4881200;29;20456;-83
2023/10/10 13:30:38;;;;;;;12.40;11.30;;;24.40;99.90;;;;;;4877351;29;20511;-81
2023/10/10 13:33:07;;;;;;;12.00;10.90;;;24.50;99.90;;;;;;4879494;29;21405;-81
2023/10/10 13:35:37;;;;;;;11.93;11.03;;;24.40;99.90;;;;;;4877395;29;20492;-81
2023/10/10 13:38:07;;;;;;;15.30;11.33;;;24.40;99.90;;;;;;4876650;29;20519;-79
2023/10/10 13:40:40;;;;;;;14.20;12.13;;;24.40;99.90;;;;;;4878564;29;20492;-81
2023/10/10 13:43:10;;;;;;;12.40;11.30;;;24.40;99.90;;;;;;4880154;29;20472;-81
2023/10/10 13:45:39;;;;;;;12.67;11.57;;;24.30;99.90;;;;;;4877489;29;20467;-82
2023/10/10 13:48:09;;;;;;;11.70;10.90;;;24.30;99.90;;;;;;4882387;29;20945;-81
2023/10/10 13:50:45;;;;;;;11.60;10.87;;;24.30;99.90;;;;;;4881964;29;20571;-81
2023/10/10 13:53:15;;;;;;;12.73;11.63;;;24.40;99.90;;;;;;4876664;29;21242;-83
2023/10/10 13:55:45;;;;;;;14.40;12.17;;;24.30;99.90;;;;;;4877507;29;20470;-82
2023/10/10 13:58:16;;;;;;;12.90;11.73;;;24.30;99.90;;;;;;4876578;29;20486;-82
2023/10/10 14:00:52;;;;;;;12.60;11.50;;;24.40;99.90;;;;;;4877753;29;20467;-81
2023/10/10 14:03:28;;;;;;;14.03;12.10;;;24.30;99.90;;;;;;4878875;29;20528;-81
2023/10/10 14:06:08;;;;;;;12.50;11.60;;;24.30;99.90;;;;;;4868989;29;20510;-81
2023/10/10 14:08:36;;;;;;;12.50;11.23;;;24.20;99.90;;;;;;4864853;29;20547;-81
2023/10/10 14:11:04;;;;;;;12.27;11.10;;;24.30;99.90;;;;;;4875833;29;20523;-81
2023/10/10 14:13:34;;;;;;;12.23;11.23;;;24.20;99.90;;;;;;4874698;29;21068;-82
2023/10/10 14:16:05;;;;;;;11.17;10.53;;;24.20;99.90;;;;;;4872494;29;20459;-82
2023/10/10 14:18:42;;;;;;;12.93;10.90;;;24.20;99.90;;;;;;4877489;29;20578;-82
2023/10/10 14:21:12;;;;;;;11.03;10.43;;;24.20;99.90;;;;;;4872175;29;20461;-82
2023/10/10 14:23:41;;;;;;;11.43;9.97;;;24.20;99.90;;;;;;4878122;29;20470;-82
2023/10/10 14:26:13;;;;;;;13.20;11.20;;;24.20;99.90;;;;;;4881373;29;20456;-82
2023/10/10 14:28:50;;;;;;;11.53;10.60;;;24.30;99.90;;;;;;4885576;29;20980;-81
2023/10/10 14:31:21;;;;;;;14.90;11.20;;;24.20;99.90;;;;;;4883530;29;20467;-82
2023/10/10 14:33:49;;;;;;;10.80;9.83;;;24.20;99.90;;;;;;4881502;29;21076;-81
2023/10/10 14:36:18;;;;;;;11.40;10.53;;;24.30;99.90;;;;;;4879318;29;20454;-80
2023/10/10 14:38:49;;;;;;;11.33;10.43;;;24.40;99.90;;;;;;4884001;29;20518;-81
2023/10/10 14:41:19;;;;;;;11.53;10.53;;;24.30;99.90;;;;;;4886937;29;20456;-81
2023/10/10 14:43:51;;;;;;;11.57;10.53;;;24.30;99.90;;;;;;4901917;29;20456;-81
2023/10/10 14:46:22;;;;;;;11.77;10.73;;;24.30;99.90;;;;;;4882068;29;20468;-82
2023/10/10 14:49:00;;;;;;;11.43;10.57;;;24.30;99.90;;;;;;4878325;29;20490;-81
2023/10/10 14:51:33;;;;;;;11.30;10.30;;;24.30;99.90;;;;;;4882820;29;20544;-81
2023/10/10 14:54:06;;;;;;;10.60;10.00;;;24.20;99.90;;;;;;4883851;29;20483;-81
2023/10/10 14:56:36;;;;;;;12.93;10.17;;;24.30;99.90;;;;;;4882805;29;20996;-81
2023/10/10 14:59:10;;;;;;;10.57;9.80;;;24.30;99.90;;;;;;4885619;29;20513;-81
2023/10/10 15:01:38;;;;;;;10.00;9.43;;;24.20;99.90;;;;;;4885366;29;20476;-81
2023/10/10 15:04:08;;;;;;;11.03;10.13;;;24.20;99.90;;;;;;4875416;29;21005;-81
2023/10/10 15:06:39;;;;;;;11.53;10.50;;;24.30;99.90;;;;;;4877090;29;20470;-80